sensor_id;sensor_type;location;lat;lon;timestamp;pressure;altitude;pressure_sealevel;temperature;humidity
66668;BME280;57205;51.438;-2.006;2023-10-13T00:02:02;100005.03;;;14.97;100.00
66668;BME280;57205;51.438;-2.006;2023-10-13T00:04:30;100007.72;;;14.97;100.00
66668;BME280;57205;51.438;-2.006;2023-10-13T00:06:58;100004.38;;;15.00;100.00
66668;BME280;57205;51.438;-2.006;2023-10-13T00:09:25;100008.06;;;15.04;100.00
66668;BME280;57205;51.438;-2.006;2023-10-13T00:11:54;100002.06;;;15.07;100.00
66668;BME280;57205;51.438;-2.006;2023-10-13T00:14:21;99993.19;;;15.06;100.00
66668;BME280;57205;51.438;-2.006;2023-10-13T00:16:48;99994.66;;;15.12;100.00
66668;BME280;57205;51.438;-2.006;2023-10-13T00:19:48;99974.84;;;15.17;100.00
66668;BME280;57205;51.438;-2.006;2023-10-13T00:22:17;99977.22;;;15.18;100.00
66668;BME280;57205;51.438;-2.006;2023-10-13T00:24:48;99952.19;;;15.18;100.00
66668;BME280;57205;51.438;-2.006;2023-10-13T00:27:21;99969.94;;;15.19;100.00
66668;BME280;57205;51.438;-2.006;2023-10-13T00:29:57;99980.59;;;15.24;100.00
66668;BME280;57205;51.438;-2.006;2023-10-13T00:32:45;99975.38;;;15.27;100.00
66668;BME280;57205;51.438;-2.006;2023-10-13T00:35:17;99982.69;;;15.27;100.00
66668;BME280;57205;51.438;-2.006;2023-10-13T00:38:02;99968.56;;;15.30;100.00
66668;BME280;57205;51.438;-2.006;2023-10-13T00:41:00;99969.97;;;15.27;100.00
66668;BME280;57205;51.438;-2.006;2023-10-13T00:43:32;99974.59;;;15.27;100.00
66668;BME280;57205;51.438;-2.006;2023-10-13T00:46:01;99962.22;;;15.26;100.00
66668;BME280;57205;51.438;-2.006;2023-10-13T00:48:37;99958.25;;;15.23;100.00
66668;BME280;57205;51.438;-2.006;2023-10-13T00:51:20;99958.03;;;15.20;100.00
66668;BME280;57205;51.438;-2.006;2023-10-13T00:54:02;99961.38;;;15.17;100.00
66668;BME280;57205;51.438;-2.006;2023-10-13T00:56:32;99964.53;;;15.10;100.00
66668;BME280;57205;51.438;-2.006;2023-10-13T00:58:59;99965.63;;;15.09;100.00
66668;BME280;57205;51.438;-2.006;2023-10-13T01:01:31;99973.53;;;15.06;100.00
66668;BME280;57205;51.438;-2.006;2023-10-13T01:03:59;99973.03;;;15.04;100.00
66668;BME280;57205;51.438;-2.006;2023-10-13T01:06:29;99963.66;;;15.01;100.00
66668;BME280;57205;51.438;-2.006;2023-10-13T01:09:01;99957.50;;;15.01;100.00
66668;BME280;57205;51.438;-2.006;2023-10-13T01:11:40;99951.63;;;14.99;100.00
66668;BME280;57205;51.438;-2.006;2023-10-13T01:14:08;99941.44;;;14.96;100.00
66668;BME280;57205;51.438;-2.006;2023-10-13T01:16:37;99931.28;;;14.93;100.00
66668;BME280;57205;51.438;-2.006;2023-10-13T01:19:05;99926.53;;;14.90;100.00
66668;BME280;57205;51.438;-2.006;2023-10-13T01:21:31;99920.66;;;14.88;100.00
66668;BME280;57205;51.438;-2.006;2023-10-13T01:23:59;99917.47;;;14.86;100.00
66668;BME280;57205;51.438;-2.006;2023-10-13T01:26:24;99919.69;;;14.84;100.00
66668;BME280;57205;51.438;-2.006;2023-10-13T01:28:56;99911.59;;;14.84;100.00
66668;BME280;57205;51.438;-2.006;2023-10-13T01:31:21;99904.94;;;14.81;100.00
66668;BME280;57205;51.438;-2.006;2023-10-13T01:33:53;99898.28;;;14.79;100.00
66668;BME280;57205;51.438;-2.006;2023-10-13T01:36:27;99882.91;;;14.79;100.00
66668;BME280;57205;51.438;-2.006;2023-10-13T01:38:53;99889.41;;;14.78;100.00
66668;BME280;57205;51.438;-2.006;2023-10-13T01:41:20;99877.66;;;14.74;100.00
66668;BME280;57205;51.438;-2.006;2023-10-13T01:43:46;99866.88;;;14.74;100.00
66668;BME280;57205;51.438;-2.006;2023-10-13T01:46:11;99859.59;;;14.75;100.00
66668;BME280;57205;51.438;-2.006;2023-10-13T01:48:41;99848.03;;;14.74;100.00
66668;BME280;57205;51.438;-2.006;2023-10-13T01:51:07;99832.97;;;14.73;100.00
66668;BME280;57205;51.438;-2.006;2023-10-13T01:53:39;99828.38;;;14.74;100.00
66668;BME280;57205;51.438;-2.006;2023-10-13T01:56:05;99819.19;;;14.75;100.00
66668;BME280;57205;51.438;-2.006;2023-10-13T01:58:39;99799.22;;;14.76;100.00
66668;BME280;57205;51.438;-2.006;2023-10-13T02:01:09;99787.38;;;14.77;100.00
66668;BME280;57205;51.438;-2.006;2023-10-13T02:03:35;99773.28;;;14.80;100.00
66668;BME280;57205;51.438;-2.006;2023-10-13T02:06:07;99767.88;;;14.80;100.00
66668;BME280;57205;51.438;-2.006;2023-10-13T02:08:35;99765.66;;;14.82;100.00
66668;BME280;57205;51.438;-2.006;2023-10-13T02:11:05;99746.81;;;14.82;100.00
66668;BME280;57205;51.438;-2.006;2023-10-13T02:13:32;99736.06;;;14.82;100.00
66668;BME280;57205;51.438;-2.006;2023-10-13T02:15:57;99725.44;;;14.85;100.00
66668;BME280;57205;51.438;-2.006;2023-10-13T02:18:27;99718.97;;;14.86;100.00
66668;BME280;57205;51.438;-2.006;2023-10-13T02:20:53;99700.88;;;14.87;100.00
66668;BME280;57205;51.438;-2.006;2023-10-13T02:23:29;99686.47;;;14.91;100.00
66668;BME280;57205;51.438;-2.006;2023-10-13T02:25:55;99681.41;;;14.98;100.00
66668;BME280;57205;51.438;-2.006;2023-10-13T02:28:29;99673.97;;;15.04;100.00
66668;BME280;57205;51.438;-2.006;2023-10-13T02:31:02;99664.31;;;15.11;100.00
66668;BME280;57205;51.438;-2.006;2023-10-13T02:33:29;99655.56;;;15.14;100.00
66668;BME280;57205;51.438;-2.006;2023-10-13T02:36:03;99657.16;;;15.24;100.00
66668;BME280;57205;51.438;-2.006;2023-10-13T02:38:31;99639.72;;;15.30;100.00
66668;BME280;57205;51.438;-2.006;2023-10-13T02:41:16;99644.66;;;15.36;100.00
66668;BME280;57205;51.438;-2.006;2023-10-13T02:43:52;99631.81;;;15.42;100.00
66668;BME280;57205;51.438;-2.006;2023-10-13T02:46:19;99607.88;;;15.49;100.00
66668;BME280;57205;51.438;-2.006;2023-10-13T02:48:47;99599.13;;;15.52;100.00
66668;BME280;57205;51.438;-2.006;2023-10-13T02:51:19;99575.31;;;15.54;100.00
66668;BME280;57205;51.438;-2.006;2023-10-13T02:53:57;99561.66;;;15.59;100.00
66668;BME280;57205;51.438;-2.006;2023-10-13T02:56:28;99558.50;;;15.57;100.00
66668;BME280;57205;51.438;-2.006;2023-10-13T02:58:55;99539.78;;;15.60;100.00
66668;BME280;57205;51.438;-2.006;2023-10-13T03:01:31;99530.25;;;15.63;100.00
66668;BME280;57205;51.438;-2.006;2023-10-13T03:04:00;99530.72;;;15.65;100.00
66668;BME280;57205;51.438;-2.006;2023-10-13T03:06:26;99526.59;;;15.68;100.00
66668;BME280;57205;51.438;-2.006;2023-10-13T03:09:03;99515.13;;;15.71;100.00
66668;BME280;57205;51.438;-2.006;2023-10-13T03:11:48;99514.81;;;15.72;100.00
66668;BME280;57205;51.438;-2.006;2023-10-13T03:14:18;99504.03;;;15.72;100.00
66668;BME280;57205;51.438;-2.006;2023-10-13T03:16:55;99509.13;;;15.74;100.00
66668;BME280;57205;51.438;-2.006;2023-10-13T03:19:22;99509.25;;;15.77;100.00
66668;BME280;57205;51.438;-2.006;2023-10-13T03:22:03;99497.34;;;15.78;100.00
66668;BME280;57205;51.438;-2.006;2023-10-13T03:24:38;99503.34;;;15.84;100.00
66668;BME280;57205;51.438;-2.006;2023-10-13T03:27:10;99503.81;;;15.86;100.00
66668;BME280;57205;51.438;-2.006;2023-10-13T03:29:42;99481.25;;;15.90;100.00
66668;BME280;57205;51.438;-2.006;2023-10-13T03:32:14;99482.16;;;15.94;100.00
66668;BME280;57205;51.438;-2.006;2023-10-13T03:34:47;99486.91;;;15.97;100.00
66668;BME280;57205;51.438;-2.006;2023-10-13T03:37:22;99474.34;;;16.01;100.00
66668;BME280;57205;51.438;-2.006;2023-10-13T03:40:06;99484.81;;;16.03;100.00
66668;BME280;57205;51.438;-2.006;2023-10-13T03:42:41;99461.78;;;16.05;100.00
66668;BME280;57205;51.438;-2.006;2023-10-13T03:45:07;99471.94;;;16.08;100.00
66668;BME280;57205;51.438;-2.006;2023-10-13T03:47:36;99481.28;;;16.11;100.00
66668;BME280;57205;51.438;-2.006;2023-10-13T03:50:05;99475.88;;;16.11;100.00
66668;BME280;57205;51.438;-2.006;2023-10-13T03:52:54;99480.16;;;16.12;100.00
66668;BME280;57205;51.438;-2.006;2023-10-13T03:55:23;99463.63;;;16.13;100.00
66668;BME280;57205;51.438;-2.006;2023-10-13T03:57:55;99469.50;;;16.15;100.00
66668;BME280;57205;51.438;-2.006;2023-10-13T04:00:22;99449.16;;;16.18;100.00
66668;BME280;57205;51.438;-2.006;2023-10-13T04:02:52;99472.44;;;16.22;100.00
66668;BME280;57205;51.438;-2.006;2023-10-13T04:05:43;99462.56;;;16.26;100.00
66668;BME280;57205;51.438;-2.006;2023-10-13T04:08:26;99460.00;;;16.30;100.00
66668;BME280;57205;51.438;-2.006;2023-10-13T04:10:56;99455.06;;;16.32;100.00
66668;BME280;57205;51.438;-2.006;2023-10-13T04:13:22;99436.28;;;16.35;100.00
66668;BME280;57205;51.438;-2.006;2023-10-13T04:16:04;99438.22;;;16.35;100.00
66668;BME280;57205;51.438;-2.006;2023-10-13T04:18:49;99439.47;;;16.37;100.00
66668;BME280;57205;51.438;-2.006;2023-10-13T04:21:24;99440.84;;;16.43;100.00
66668;BME280;57205;51.438;-2.006;2023-10-13T04:24:12;99445.56;;;16.46;100.00
66668;BME280;57205;51.438;-2.006;2023-10-13T04:26:51;99434.16;;;16.49;100.00
66668;BME280;57205;51.438;-2.006;2023-10-13T04:29:36;99427.16;;;16.48;100.00
66668;BME280;57205;51.438;-2.006;2023-10-13T04:32:14;99431.13;;;16.51;100.00
66668;BME280;57205;51.438;-2.006;2023-10-13T04:34:41;99431.25;;;16.54;100.00
66668;BME280;57205;51.438;-2.006;2023-10-13T04:37:14;99411.88;;;16.52;100.00
66668;BME280;57205;51.438;-2.006;2023-10-13T04:39:55;99414.69;;;16.56;100.00
66668;BME280;57205;51.438;-2.006;2023-10-13T04:42:37;99411.66;;;16.57;100.00
66668;BME280;57205;51.438;-2.006;2023-10-13T04:45:18;99415.50;;;16.56;100.00
66668;BME280;57205;51.438;-2.006;2023-10-13T04:47:56;99392.75;;;16.57;100.00
66668;BME280;57205;51.438;-2.006;2023-10-13T04:50:40;99396.84;;;16.64;100.00
66668;BME280;57205;51.438;-2.006;2023-10-13T04:53:14;99394.59;;;16.66;100.00
66668;BME280;57205;51.438;-2.006;2023-10-13T04:56:12;99397.28;;;16.66;100.00
66668;BME280;57205;51.438;-2.006;2023-10-13T04:58:56;99380.41;;;16.69;100.00
66668;BME280;57205;51.438;-2.006;2023-10-13T05:01:43;99383.25;;;16.72;100.00
66668;BME280;57205;51.438;-2.006;2023-10-13T05:04:26;99374.00;;;16.73;100.00
66668;BME280;57205;51.438;-2.006;2023-10-13T05:07:24;99381.13;;;16.78;100.00
66668;BME280;57205;51.438;-2.006;2023-10-13T05:10:08;99372.69;;;16.79;100.00
66668;BME280;57205;51.438;-2.006;2023-10-13T05:12:52;99379.13;;;16.87;100.00
66668;BME280;57205;51.438;-2.006;2023-10-13T05:15:43;99373.03;;;16.90;100.00
66668;BME280;57205;51.438;-2.006;2023-10-13T05:18:27;99381.13;;;16.90;100.00
66668;BME280;57205;51.438;-2.006;2023-10-13T05:21:11;99368.53;;;16.94;100.00
66668;BME280;57205;51.438;-2.006;2023-10-13T05:23:55;99373.59;;;16.95;100.00
66668;BME280;57205;51.438;-2.006;2023-10-13T05:26:39;99371.00;;;16.99;100.00
66668;BME280;57205;51.438;-2.006;2023-10-13T05:29:23;99357.50;;;16.99;100.00
66668;BME280;57205;51.438;-2.006;2023-10-13T05:32:07;99371.25;;;17.06;100.00
66668;BME280;57205;51.438;-2.006;2023-10-13T05:34:51;99357.41;;;17.07;100.00
66668;BME280;57205;51.438;-2.006;2023-10-13T05:37:34;99358.19;;;17.08;100.00
66668;BME280;57205;51.438;-2.006;2023-10-13T05:40:19;99352.00;;;17.07;100.00
66668;BME280;57205;51.438;-2.006;2023-10-13T05:43:03;99338.25;;;17.12;100.00
66668;BME280;57205;51.438;-2.006;2023-10-13T05:45:47;99336.81;;;17.15;100.00
66668;BME280;57205;51.438;-2.006;2023-10-13T05:48:32;99328.00;;;17.18;100.00
66668;BME280;57205;51.438;-2.006;2023-10-13T05:51:17;99332.63;;;17.17;100.00
66668;BME280;57205;51.438;-2.006;2023-10-13T05:54:00;99321.47;;;17.19;100.00
66668;BME280;57205;51.438;-2.006;2023-10-13T05:56:45;99326.19;;;17.22;100.00
66668;BME280;57205;51.438;-2.006;2023-10-13T05:59:30;99316.94;;;17.23;100.00
66668;BME280;57205;51.438;-2.006;2023-10-13T06:02:16;99311.44;;;17.19;100.00
66668;BME280;57205;51.438;-2.006;2023-10-13T06:05:04;99319.91;;;17.18;100.00
66668;BME280;57205;51.438;-2.006;2023-10-13T06:07:49;99325.66;;;17.16;100.00
66668;BME280;57205;51.438;-2.006;2023-10-13T06:10:33;99317.53;;;17.16;100.00
66668;BME280;57205;51.438;-2.006;2023-10-13T06:13:17;99308.63;;;17.16;100.00
66668;BME280;57205;51.438;-2.006;2023-10-13T06:16:09;99320.69;;;17.18;100.00
66668;BME280;57205;51.438;-2.006;2023-10-13T06:18:53;99315.28;;;17.18;100.00
66668;BME280;57205;51.438;-2.006;2023-10-13T06:21:38;99316.84;;;17.19;100.00
66668;BME280;57205;51.438;-2.006;2023-10-13T06:24:21;99311.44;;;17.19;100.00
66668;BME280;57205;51.438;-2.006;2023-10-13T06:27:05;99313.03;;;17.20;100.00
66668;BME280;57205;51.438;-2.006;2023-10-13T06:29:49;99309.63;;;17.23;100.00
66668;BME280;57205;51.438;-2.006;2023-10-13T06:32:16;99313.13;;;17.24;100.00
66668;BME280;57205;51.438;-2.006;2023-10-13T06:34:42;99309.63;;;17.23;100.00
66668;BME280;57205;51.438;-2.006;2023-10-13T06:37:14;99313.91;;;17.24;100.00
66668;BME280;57205;51.438;-2.006;2023-10-13T06:39:50;99303.66;;;17.30;100.00
66668;BME280;57205;51.438;-2.006;2023-10-13T06:42:16;99291.63;;;17.27;100.00
66668;BME280;57205;51.438;-2.006;2023-10-13T06:44:43;99301.75;;;17.30;100.00
66668;BME280;57205;51.438;-2.006;2023-10-13T06:47:12;99295.53;;;17.30;100.00
66668;BME280;57205;51.438;-2.006;2023-10-13T06:49:40;99311.75;;;17.30;100.00
66668;BME280;57205;51.438;-2.006;2023-10-13T06:52:08;99308.75;;;17.31;100.00
66668;BME280;57205;51.438;-2.006;2023-10-13T06:54:35;99308.75;;;17.31;100.00
66668;BME280;57205;51.438;-2.006;2023-10-13T06:57:01;99307.69;;;17.36;100.00
66668;BME280;57205;51.438;-2.006;2023-10-13T06:59:33;99317.16;;;17.42;100.00
66668;BME280;57205;51.438;-2.006;2023-10-13T07:02:06;99314.56;;;17.45;100.00
66668;BME280;57205;51.438;-2.006;2023-10-13T07:04:34;99324.13;;;17.43;100.00
66668;BME280;57205;51.438;-2.006;2023-10-13T07:06:59;99308.72;;;17.43;100.00
66668;BME280;57205;51.438;-2.006;2023-10-13T07:09:31;99309.84;;;17.42;100.00
66668;BME280;57205;51.438;-2.006;2023-10-13T07:11:59;99299.78;;;17.43;100.00
66668;BME280;57205;51.438;-2.006;2023-10-13T07:14:26;99309.06;;;17.42;100.00
66668;BME280;57205;51.438;-2.006;2023-10-13T07:17:05;99319.06;;;17.41;100.00
66668;BME280;57205;51.438;-2.006;2023-10-13T07:19:33;99307.91;;;17.43;100.00
66668;BME280;57205;51.438;-2.006;2023-10-13T07:22:02;99309.06;;;17.42;100.00
66668;BME280;57205;51.438;-2.006;2023-10-13T07:24:50;99310.63;;;17.43;100.00
66668;BME280;57205;51.438;-2.006;2023-10-13T07:27:20;99306.00;;;17.43;100.00
66668;BME280;57205;51.438;-2.006;2023-10-13T07:29:57;99316.81;;;17.43;100.00
66668;BME280;57205;51.438;-2.006;2023-10-13T07:32:43;99318.06;;;17.46;100.00
66668;BME280;57205;51.438;-2.006;2023-10-13T07:35:15;99326.19;;;17.46;100.00
66668;BME280;57205;51.438;-2.006;2023-10-13T07:37:47;99321.44;;;17.43;100.00
66668;BME280;57205;51.438;-2.006;2023-10-13T07:40:17;99323.03;;;17.44;100.00
66668;BME280;57205;51.438;-2.006;2023-10-13T07:42:55;99327.75;;;17.47;100.00
66668;BME280;57205;51.438;-2.006;2023-10-13T07:45:29;99326.41;;;17.53;100.00
66668;BME280;57205;51.438;-2.006;2023-10-13T07:48:02;99320.22;;;17.52;100.00
66668;BME280;57205;51.438;-2.006;2023-10-13T07:50:34;99318.75;;;17.55;100.00
66668;BME280;57205;51.438;-2.006;2023-10-13T07:53:00;99329.56;;;17.55;100.00
66668;BME280;57205;51.438;-2.006;2023-10-13T07:55:44;99325.72;;;17.56;100.00
66668;BME280;57205;51.438;-2.006;2023-10-13T07:58:10;99333.06;;;17.56;100.00
66668;BME280;57205;51.438;-2.006;2023-10-13T08:00:39;99332.63;;;17.53;100.00
66668;BME280;57205;51.438;-2.006;2023-10-13T08:03:10;99351.91;;;17.52;100.00
66668;BME280;57205;51.438;-2.006;2023-10-13T08:05:57;99347.16;;;17.49;100.00
66668;BME280;57205;51.438;-2.006;2023-10-13T08:08:45;99359.88;;;17.48;100.00
66668;BME280;57205;51.438;-2.006;2023-10-13T08:11:21;99354.78;;;17.47;100.00
66668;BME280;57205;51.438;-2.006;2023-10-13T08:13:58;99352.44;;;17.45;100.00
66668;BME280;57205;51.438;-2.006;2023-10-13T08:16:36;99367.84;;;17.45;100.00
66668;BME280;57205;51.438;-2.006;2023-10-13T08:19:14;99375.53;;;17.43;100.00
66668;BME280;57205;51.438;-2.006;2023-10-13T08:21:45;99376.31;;;17.43;100.00
66668;BME280;57205;51.438;-2.006;2023-10-13T08:24:25;99374.41;;;17.44;100.00
66668;BME280;57205;51.438;-2.006;2023-10-13T08:27:20;99376.41;;;17.47;100.00
66668;BME280;57205;51.438;-2.006;2023-10-13T08:30:21;99381.97;;;17.50;100.00
66668;BME280;57205;51.438;-2.006;2023-10-13T08:32:55;99387.84;;;17.52;100.00
66668;BME280;57205;51.438;-2.006;2023-10-13T08:35:22;99379.06;;;17.56;100.00
66668;BME280;57205;51.438;-2.006;2023-10-13T08:38:03;99383.31;;;17.57;100.00
66668;BME280;57205;51.438;-2.006;2023-10-13T08:40:43;99381.88;;;17.59;100.00
66668;BME280;57205;51.438;-2.006;2023-10-13T08:43:32;99386.94;;;17.61;100.00
66668;BME280;57205;51.438;-2.006;2023-10-13T08:46:09;99387.72;;;17.61;100.00
66668;BME280;57205;51.438;-2.006;2023-10-13T08:48:36;99376.22;;;17.64;100.00
66668;BME280;57205;51.438;-2.006;2023-10-13T08:51:02;99378.69;;;17.69;100.00
66668;BME280;57205;51.438;-2.006;2023-10-13T08:53:38;99378.34;;;17.71;100.00
66668;BME280;57205;51.438;-2.006;2023-10-13T08:56:17;99373.50;;;17.76;100.00
66668;BME280;57205;51.438;-2.006;2023-10-13T08:58:45;99371.66;;;17.80;100.00
66668;BME280;57205;51.438;-2.006;2023-10-13T09:01:24;99365.34;;;17.88;100.00
66668;BME280;57205;51.438;-2.006;2023-10-13T09:04:13;99363.09;;;17.90;100.00
66668;BME280;57205;51.438;-2.006;2023-10-13T09:12:12;99350.78;;;17.93;100.00
66668;BME280;57205;51.438;-2.006;2023-10-13T09:14:40;99343.22;;;17.98;100.00
66668;BME280;57205;51.438;-2.006;2023-10-13T09:17:11;99349.41;;;17.99;100.00
66668;BME280;57205;51.438;-2.006;2023-10-13T09:19:48;99351.53;;;18.05;100.00
66668;BME280;57205;51.438;-2.006;2023-10-13T09:22:28;99363.56;;;18.08;100.00
66668;BME280;57205;51.438;-2.006;2023-10-13T09:25:04;99347.47;;;18.11;100.00
66668;BME280;57205;51.438;-2.006;2023-10-13T09:27:32;99340.19;;;18.15;100.00
66668;BME280;57205;51.438;-2.006;2023-10-13T09:30:03;99330.13;;;18.28;100.00
66668;BME280;57205;51.438;-2.006;2023-10-13T09:32:35;99322.88;;;18.60;100.00
66668;BME280;57205;51.438;-2.006;2023-10-13T09:35:18;99318.50;;;18.86;100.00
66668;BME280;57205;51.438;-2.006;2023-10-13T09:37:44;99308.53;;;19.06;100.00
66668;BME280;57205;51.438;-2.006;2023-10-13T09:40:17;99300.00;;;19.23;100.00
66668;BME280;57205;51.438;-2.006;2023-10-13T09:43:04;99296.38;;;19.50;100.00
66668;BME280;57205;51.438;-2.006;2023-10-13T09:45:40;99289.09;;;19.73;100.00
66668;BME280;57205;51.438;-2.006;2023-10-13T09:48:36;99284.97;;;19.98;100.00
66668;BME280;57205;51.438;-2.006;2023-10-13T09:51:12;99270.94;;;20.15;100.00
66668;BME280;57205;51.438;-2.006;2023-10-13T09:53:41;99271.72;;;20.16;100.00
66668;BME280;57205;51.438;-2.006;2023-10-13T09:56:21;99273.16;;;20.29;100.00
66668;BME280;57205;51.438;-2.006;2023-10-13T09:59:08;99274.50;;;20.38;100.00
66668;BME280;57205;51.438;-2.006;2023-10-13T10:01:41;99273.88;;;20.26;100.00
66668;BME280;57205;51.438;-2.006;2023-10-13T10:04:18;99281.38;;;20.13;100.00
66668;BME280;57205;51.438;-2.006;2023-10-13T10:09:19;99292.13;;;19.87;100.00
66668;BME280;57205;51.438;-2.006;2023-10-13T10:17:13;99294.69;;;19.61;100.00
66668;BME280;57205;51.438;-2.006;2023-10-13T10:20:05;99280.69;;;19.59;100.00
66668;BME280;57205;51.438;-2.006;2023-10-13T10:22:40;99284.69;;;19.65;100.00
66668;BME280;57205;51.438;-2.006;2023-10-13T10:25:13;99280.81;;;19.66;100.00
66668;BME280;57205;51.438;-2.006;2023-10-13T10:28:06;99263.97;;;19.57;100.00
66668;BME280;57205;51.438;-2.006;2023-10-13T10:30:37;99278.53;;;19.68;100.00
66668;BME280;57205;51.438;-2.006;2023-10-13T10:33:08;99291.25;;;19.83;100.00
66668;BME280;57205;51.438;-2.006;2023-10-13T10:35:57;99276.56;;;19.84;100.00
66668;BME280;57205;51.438;-2.006;2023-10-13T10:38:23;99267.75;;;19.72;100.00
66668;BME280;57205;51.438;-2.006;2023-10-13T10:40:58;99282.97;;;19.57;100.00
66668;BME280;57205;51.438;-2.006;2023-10-13T10:45:51;99280.75;;;19.28;100.00
66668;BME280;57205;51.438;-2.006;2023-10-13T10:48:17;99278.22;;;19.19;100.00
66668;BME280;57205;51.438;-2.006;2023-10-13T10:50:55;99278.56;;;19.18;100.00
66668;BME280;57205;51.438;-2.006;2023-10-13T10:53:22;99284.28;;;19.13;100.00
66668;BME280;57205;51.438;-2.006;2023-10-13T10:55:48;99279.47;;;19.06;100.00
66668;BME280;57205;51.438;-2.006;2023-10-13T10:58:14;99289.53;;;19.06;100.00
66668;BME280;57205;51.438;-2.006;2023-10-13T11:01:06;99283.69;;;19.04;100.00
66668;BME280;57205;51.438;-2.006;2023-10-13T11:06:27;99279.22;;;18.96;100.00
66668;BME280;57205;51.438;-2.006;2023-10-13T11:09:03;99282.91;;;18.88;100.00
66668;BME280;57205;51.438;-2.006;2023-10-13T11:11:32;99281.97;;;18.80;100.00
66668;BME280;57205;51.438;-2.006;2023-10-13T11:14:01;99279.84;;;18.74;100.00
66668;BME280;57205;51.438;-2.006;2023-10-13T11:16:56;99276.03;;;18.75;100.00
66668;BME280;57205;51.438;-2.006;2023-10-13T11:19:42;99280.03;;;18.81;100.00
66668;BME280;57205;51.438;-2.006;2023-10-13T11:25:01;99287.00;;;18.97;100.00
66668;BME280;57205;51.438;-2.006;2023-10-13T11:27:37;99285.97;;;19.02;100.00
66668;BME280;57205;51.438;-2.006;2023-10-13T11:30:18;99273.19;;;19.02;100.00
66668;BME280;57205;51.438;-2.006;2023-10-13T11:33:07;99266.09;;;18.98;100.00
66668;BME280;57205;51.438;-2.006;2023-10-13T11:35:33;99267.59;;;18.95;100.00
66668;BME280;57205;51.438;-2.006;2023-10-13T11:38:17;99262.22;;;19.14;100.00
66668;BME280;57205;51.438;-2.006;2023-10-13T11:41:05;99260.44;;;19.37;100.00
66668;BME280;57205;51.438;-2.006;2023-10-13T11:43:31;99248.09;;;19.59;100.00
66668;BME280;57205;51.438;-2.006;2023-10-13T11:46:01;99261.06;;;19.66;100.00
66668;BME280;57205;51.438;-2.006;2023-10-13T11:48:36;99255.69;;;19.69;100.00
66668;BME280;57205;51.438;-2.006;2023-10-13T11:51:06;99247.75;;;19.80;100.00
66668;BME280;57205;51.438;-2.006;2023-10-13T11:53:35;99252.53;;;19.86;100.00
66668;BME280;57205;51.438;-2.006;2023-10-13T11:56:05;99238.19;;;19.86;100.00
66668;BME280;57205;51.438;-2.006;2023-10-13T11:58:40;99235.47;;;19.86;100.00
66668;BME280;57205;51.438;-2.006;2023-10-13T12:01:06;99228.09;;;19.86;100.00
66668;BME280;57205;51.438;-2.006;2023-10-13T12:03:38;99240.47;;;19.84;100.00
66668;BME280;57205;51.438;-2.006;2023-10-13T12:06:22;99234.25;;;19.83;100.00
66668;BME280;57205;51.438;-2.006;2023-10-13T12:09:09;99218.56;;;19.96;100.00
66668;BME280;57205;51.438;-2.006;2023-10-13T12:11:47;99218.63;;;19.99;100.00
66668;BME280;57205;51.438;-2.006;2023-10-13T12:14:15;99217.09;;;19.98;100.00
66668;BME280;57205;51.438;-2.006;2023-10-13T12:16:47;99216.97;;;19.91;100.00
66668;BME280;57205;51.438;-2.006;2023-10-13T12:19:17;99212.97;;;19.85;100.00
66668;BME280;57205;51.438;-2.006;2023-10-13T12:21:43;99200.38;;;19.77;100.00
66668;BME280;57205;51.438;-2.006;2023-10-13T12:24:10;99198.59;;;19.85;100.00
66668;BME280;57205;51.438;-2.006;2023-10-13T12:26:50;99186.78;;;19.96;100.00
66668;BME280;57205;51.438;-2.006;2023-10-13T12:29:24;99169.97;;;20.10;100.00
66668;BME280;57205;51.438;-2.006;2023-10-13T12:31:55;99181.19;;;20.31;100.00
66668;BME280;57205;51.438;-2.006;2023-10-13T12:34:35;99178.69;;;20.42;100.00
66668;BME280;57205;51.438;-2.006;2023-10-13T12:37:39;99159.28;;;20.43;100.00
66668;BME280;57205;51.438;-2.006;2023-10-13T12:40:16;99175.13;;;20.37;100.00
66668;BME280;57205;51.438;-2.006;2023-10-13T12:43:00;99171.56;;;20.33;100.00
66668;BME280;57205;51.438;-2.006;2023-10-13T12:45:46;99174.47;;;20.21;100.00
66668;BME280;57205;51.438;-2.006;2023-10-13T12:48:31;99178.88;;;20.10;100.00
66668;BME280;57205;51.438;-2.006;2023-10-13T12:51:15;99183.59;;;19.91;100.00
66668;BME280;57205;51.438;-2.006;2023-10-13T12:54:06;99193.75;;;19.75;100.00
66668;BME280;57205;51.438;-2.006;2023-10-13T12:56:45;99200.41;;;19.58;100.00
66668;BME280;57205;51.438;-2.006;2023-10-13T12:59:11;99206.91;;;19.34;100.00
66668;BME280;57205;51.438;-2.006;2023-10-13T13:01:40;99216.13;;;19.14;100.00
66668;BME280;57205;51.438;-2.006;2023-10-13T13:04:10;99224.13;;;18.92;100.00
66668;BME280;57205;51.438;-2.006;2023-10-13T13:06:51;99227.84;;;18.68;100.00
66668;BME280;57205;51.438;-2.006;2023-10-13T13:09:19;99231.69;;;18.52;100.00
66668;BME280;57205;51.438;-2.006;2023-10-13T13:11:54;99230.88;;;18.35;100.00
66668;BME280;57205;51.438;-2.006;2023-10-13T13:14:23;99233.41;;;18.28;100.00
66668;BME280;57205;51.438;-2.006;2023-10-13T13:16:57;99234.81;;;18.22;100.00
66668;BME280;57205;51.438;-2.006;2023-10-13T13:19:36;99245.63;;;18.22;100.00
66668;BME280;57205;51.438;-2.006;2023-10-13T13:22:05;99253.22;;;18.17;100.00
66668;BME280;57205;51.438;-2.006;2023-10-13T13:24:31;99258.44;;;18.10;100.00
66668;BME280;57205;51.438;-2.006;2023-10-13T13:26:57;99255.53;;;18.03;100.00
66668;BME280;57205;51.438;-2.006;2023-10-13T13:29:28;99262.25;;;17.93;100.00
66668;BME280;57205;51.438;-2.006;2023-10-13T13:31:54;99255.00;;;17.82;100.00
66668;BME280;57205;51.438;-2.006;2023-10-13T13:34:20;99258.97;;;17.72;100.00
66668;BME280;57205;51.438;-2.006;2023-10-13T13:36:46;99261.69;;;17.60;100.00
66668;BME280;57205;51.438;-2.006;2023-10-13T13:39:20;99260.69;;;17.52;100.00
66668;BME280;57205;51.438;-2.006;2023-10-13T13:41:57;99255.06;;;17.45;100.00
66668;BME280;57205;51.438;-2.006;2023-10-13T13:44:24;99264.88;;;17.38;100.00